sensor_id;sensor_type;location;lat;lon;timestamp;P1;durP1;ratioP1;P2;durP2;ratioP2
67372;SDS011;54257;54.496;18.412;2023-04-24T00:02:13;6.00;;;5.40;;
67372;SDS011;54257;54.496;18.412;2023-04-24T00:04:41;6.00;;;5.50;;
67372;SDS011;54257;54.496;18.412;2023-04-24T00:07:11;6.60;;;6.00;;
67372;SDS011;54257;54.496;18.412;2023-04-24T00:09:39;8.50;;;7.00;;
67372;SDS011;54257;54.496;18.412;2023-04-24T00:12:06;10.20;;;9.20;;
67372;SDS011;54257;54.496;18.412;2023-04-24T00:14:34;11.50;;;10.40;;
67372;SDS011;54257;54.496;18.412;2023-04-24T00:17:01;12.40;;;11.20;;
67372;SDS011;54257;54.496;18.412;2023-04-24T00:19:31;12.80;;;11.50;;
67372;SDS011;54257;54.496;18.412;2023-04-24T00:21:58;16.80;;;15.00;;
67372;SDS011;54257;54.496;18.412;2023-04-24T00:24:29;16.80;;;15.00;;
67372;SDS011;54257;54.496;18.412;2023-04-24T00:26:56;18.40;;;15.20;;
67372;SDS011;54257;54.496;18.412;2023-04-24T00:29:23;19.00;;;17.10;;
67372;SDS011;54257;54.496;18.412;2023-04-24T00:31:51;19.10;;;16.30;;
67372;SDS011;54257;54.496;18.412;2023-04-24T00:34:18;20.90;;;17.60;;
67372;SDS011;54257;54.496;18.412;2023-04-24T00:36:45;19.30;;;17.40;;
67372;SDS011;54257;54.496;18.412;2023-04-24T00:39:13;20.10;;;17.80;;
67372;SDS011;54257;54.496;18.412;2023-04-24T00:41:40;23.20;;;20.80;;
67372;SDS011;54257;54.496;18.412;2023-04-24T00:44:07;24.50;;;21.70;;
67372;SDS011;54257;54.496;18.412;2023-04-24T00:46:34;25.50;;;22.50;;
67372;SDS011;54257;54.496;18.412;2023-04-24T00:49:04;26.20;;;23.40;;
67372;SDS011;54257;54.496;18.412;2023-04-24T00:51:32;24.90;;;21.50;;
67372;SDS011;54257;54.496;18.412;2023-04-24T00:54:01;24.30;;;21.70;;
67372;SDS011;54257;54.496;18.412;2023-04-24T00:56:28;23.90;;;21.40;;
67372;SDS011;54257;54.496;18.412;2023-04-24T00:58:56;23.80;;;21.10;;
67372;SDS011;54257;54.496;18.412;2023-04-24T01:01:25;23.00;;;20.60;;
67372;SDS011;54257;54.496;18.412;2023-04-24T01:03:52;25.70;;;22.80;;
67372;SDS011;54257;54.496;18.412;2023-04-24T01:06:20;23.80;;;21.20;;
67372;SDS011;54257;54.496;18.412;2023-04-24T01:08:47;24.20;;;21.70;;
67372;SDS011;54257;54.496;18.412;2023-04-24T01:11:15;23.40;;;20.80;;
67372;SDS011;54257;54.496;18.412;2023-04-24T01:13:43;21.20;;;18.50;;
67372;SDS011;54257;54.496;18.412;2023-04-24T01:16:10;18.50;;;16.50;;
67372;SDS011;54257;54.496;18.412;2023-04-24T01:18:37;19.80;;;16.40;;
67372;SDS011;54257;54.496;18.412;2023-04-24T01:21:05;22.00;;;18.10;;
67372;SDS011;54257;54.496;18.412;2023-04-24T01:23:35;24.00;;;19.00;;
67372;SDS011;54257;54.496;18.412;2023-04-24T01:26:03;23.90;;;19.30;;
67372;SDS011;54257;54.496;18.412;2023-04-24T01:28:30;23.60;;;19.30;;
67372;SDS011;54257;54.496;18.412;2023-04-24T01:30:58;22.90;;;17.60;;
67372;SDS011;54257;54.496;18.412;2023-04-24T01:33:26;23.40;;;17.20;;
67372;SDS011;54257;54.496;18.412;2023-04-24T01:35:53;22.40;;;16.50;;
67372;SDS011;54257;54.496;18.412;2023-04-24T01:38:21;21.60;;;16.70;;
67372;SDS011;54257;54.496;18.412;2023-04-24T01:40:49;23.70;;;17.50;;
67372;SDS011;54257;54.496;18.412;2023-04-24T01:43:16;36.10;;;18.00;;
67372;SDS011;54257;54.496;18.412;2023-04-24T01:45:44;23.30;;;17.10;;
67372;SDS011;54257;54.496;18.412;2023-04-24T01:48:12;24.20;;;17.80;;
67372;SDS011;54257;54.496;18.412;2023-04-24T01:50:40;27.60;;;17.70;;
67372;SDS011;54257;54.496;18.412;2023-04-24T01:53:07;21.20;;;16.30;;
67372;SDS011;54257;54.496;18.412;2023-04-24T01:55:35;26.20;;;18.10;;
67372;SDS011;54257;54.496;18.412;2023-04-24T01:58:02;24.70;;;17.50;;
67372;SDS011;54257;54.496;18.412;2023-04-24T02:00:29;27.60;;;18.10;;
67372;SDS011;54257;54.496;18.412;2023-04-24T02:02:56;25.10;;;18.80;;
67372;SDS011;54257;54.496;18.412;2023-04-24T02:05:23;25.60;;;18.50;;
67372;SDS011;54257;54.496;18.412;2023-04-24T02:07:50;28.10;;;19.80;;
67372;SDS011;54257;54.496;18.412;2023-04-24T02:10:17;30.10;;;19.50;;
67372;SDS011;54257;54.496;18.412;2023-04-24T02:12:45;29.70;;;19.60;;
67372;SDS011;54257;54.496;18.412;2023-04-24T02:15:12;27.80;;;20.30;;
67372;SDS011;54257;54.496;18.412;2023-04-24T02:17:39;33.20;;;22.80;;
67372;SDS011;54257;54.496;18.412;2023-04-24T02:20:07;30.80;;;21.50;;
67372;SDS011;54257;54.496;18.412;2023-04-24T02:22:34;35.40;;;21.30;;
67372;SDS011;54257;54.496;18.412;2023-04-24T02:25:01;32.30;;;21.00;;
67372;SDS011;54257;54.496;18.412;2023-04-24T02:27:29;35.30;;;21.80;;
67372;SDS011;54257;54.496;18.412;2023-04-24T02:29:56;43.10;;;24.20;;
67372;SDS011;54257;54.496;18.412;2023-04-24T02:32:23;40.20;;;20.00;;
67372;SDS011;54257;54.496;18.412;2023-04-24T02:34:51;32.40;;;20.80;;
67372;SDS011;54257;54.496;18.412;2023-04-24T02:37:18;37.80;;;19.70;;
67372;SDS011;54257;54.496;18.412;2023-04-24T02:39:45;41.90;;;21.40;;
67372;SDS011;54257;54.496;18.412;2023-04-24T02:42:12;36.90;;;20.40;;
67372;SDS011;54257;54.496;18.412;2023-04-24T02:44:40;35.50;;;21.80;;
67372;SDS011;54257;54.496;18.412;2023-04-24T02:47:07;38.80;;;20.80;;
67372;SDS011;54257;54.496;18.412;2023-04-24T02:49:35;36.20;;;20.60;;
67372;SDS011;54257;54.496;18.412;2023-04-24T02:52:02;31.30;;;18.90;;
67372;SDS011;54257;54.496;18.412;2023-04-24T02:54:29;30.90;;;19.60;;
67372;SDS011;54257;54.496;18.412;2023-04-24T02:56:56;30.50;;;18.50;;
67372;SDS011;54257;54.496;18.412;2023-04-24T02:59:23;30.80;;;18.20;;
67372;SDS011;54257;54.496;18.412;2023-04-24T03:01:50;68.70;;;18.50;;
67372;SDS011;54257;54.496;18.412;2023-04-24T03:04:18;35.70;;;15.90;;
67372;SDS011;54257;54.496;18.412;2023-04-24T03:06:46;51.20;;;16.30;;
67372;SDS011;54257;54.496;18.412;2023-04-24T03:09:13;32.60;;;15.10;;
67372;SDS011;54257;54.496;18.412;2023-04-24T03:11:40;55.90;;;17.50;;
67372;SDS011;54257;54.496;18.412;2023-04-24T03:14:07;45.10;;;16.10;;
67372;SDS011;54257;54.496;18.412;2023-04-24T03:16:35;43.90;;;15.40;;
67372;SDS011;54257;54.496;18.412;2023-04-24T03:19:02;30.40;;;16.90;;
67372;SDS011;54257;54.496;18.412;2023-04-24T03:21:29;35.00;;;16.70;;
67372;SDS011;54257;54.496;18.412;2023-04-24T03:23:57;28.50;;;16.70;;
67372;SDS011;54257;54.496;18.412;2023-04-24T03:26:24;26.00;;;17.80;;
67372;SDS011;54257;54.496;18.412;2023-04-24T03:28:51;52.20;;;18.30;;
67372;SDS011;54257;54.496;18.412;2023-04-24T03:31:18;37.90;;;18.60;;
67372;SDS011;54257;54.496;18.412;2023-04-24T03:33:47;28.50;;;15.90;;
67372;SDS011;54257;54.496;18.412;2023-04-24T03:36:18;30.00;;;17.40;;
67372;SDS011;54257;54.496;18.412;2023-04-24T03:38:45;49.30;;;19.10;;
67372;SDS011;54257;54.496;18.412;2023-04-24T03:41:12;33.30;;;16.40;;
67372;SDS011;54257;54.496;18.412;2023-04-24T03:43:40;53.30;;;19.80;;
67372;SDS011;54257;54.496;18.412;2023-04-24T03:46:07;27.40;;;17.00;;
67372;SDS011;54257;54.496;18.412;2023-04-24T03:48:36;51.70;;;18.20;;
67372;SDS011;54257;54.496;18.412;2023-04-24T03:51:03;55.20;;;19.30;;
67372;SDS011;54257;54.496;18.412;2023-04-24T03:53:30;89.90;;;20.10;;
67372;SDS011;54257;54.496;18.412;2023-04-24T03:55:57;44.60;;;19.40;;
67372;SDS011;54257;54.496;18.412;2023-04-24T03:58:24;40.90;;;18.30;;
67372;SDS011;54257;54.496;18.412;2023-04-24T04:00:51;66.00;;;19.70;;
67372;SDS011;54257;54.496;18.412;2023-04-24T04:03:18;46.70;;;19.70;;
67372;SDS011;54257;54.496;18.412;2023-04-24T04:05:44;36.10;;;18.00;;
67372;SDS011;54257;54.496;18.412;2023-04-24T04:08:12;42.90;;;17.90;;
67372;SDS011;54257;54.496;18.412;2023-04-24T04:10:39;35.90;;;17.50;;
67372;SDS011;54257;54.496;18.412;2023-04-24T04:13:05;28.90;;;15.80;;
67372;SDS011;54257;54.496;18.412;2023-04-24T04:15:33;28.60;;;14.00;;
67372;SDS011;54257;54.496;18.412;2023-04-24T04:18:00;41.10;;;16.50;;
67372;SDS011;54257;54.496;18.412;2023-04-24T04:20:27;38.90;;;14.80;;
67372;SDS011;54257;54.496;18.412;2023-04-24T04:22:54;33.10;;;16.70;;
67372;SDS011;54257;54.496;18.412;2023-04-24T04:25:21;44.40;;;15.30;;
67372;SDS011;54257;54.496;18.412;2023-04-24T04:27:49;27.30;;;13.10;;
67372;SDS011;54257;54.496;18.412;2023-04-24T04:30:17;29.90;;;14.00;;
67372;SDS011;54257;54.496;18.412;2023-04-24T04:32:44;31.20;;;14.50;;
67372;SDS011;54257;54.496;18.412;2023-04-24T04:35:11;30.20;;;12.00;;
67372;SDS011;54257;54.496;18.412;2023-04-24T04:37:38;41.00;;;13.20;;
67372;SDS011;54257;54.496;18.412;2023-04-24T04:40:06;43.20;;;12.60;;
67372;SDS011;54257;54.496;18.412;2023-04-24T04:42:37;25.90;;;12.10;;
67372;SDS011;54257;54.496;18.412;2023-04-24T04:45:09;29.60;;;14.60;;
67372;SDS011;54257;54.496;18.412;2023-04-24T04:47:37;34.70;;;12.50;;
67372;SDS011;54257;54.496;18.412;2023-04-24T04:50:06;31.50;;;14.40;;
67372;SDS011;54257;54.496;18.412;2023-04-24T04:52:33;38.20;;;16.00;;
67372;SDS011;54257;54.496;18.412;2023-04-24T04:55:00;44.80;;;15.10;;
67372;SDS011;54257;54.496;18.412;2023-04-24T04:57:27;29.70;;;15.30;;
67372;SDS011;54257;54.496;18.412;2023-04-24T04:59:54;29.20;;;15.30;;
67372;SDS011;54257;54.496;18.412;2023-04-24T05:02:24;35.20;;;16.70;;
67372;SDS011;54257;54.496;18.412;2023-04-24T05:04:52;36.30;;;17.40;;
67372;SDS011;54257;54.496;18.412;2023-04-24T05:07:19;36.70;;;18.80;;
67372;SDS011;54257;54.496;18.412;2023-04-24T05:09:46;59.00;;;18.10;;
67372;SDS011;54257;54.496;18.412;2023-04-24T05:12:14;48.30;;;18.90;;
67372;SDS011;54257;54.496;18.412;2023-04-24T05:14:41;40.00;;;17.40;;
67372;SDS011;54257;54.496;18.412;2023-04-24T05:17:08;36.60;;;19.20;;
67372;SDS011;54257;54.496;18.412;2023-04-24T05:19:35;34.70;;;17.80;;
67372;SDS011;54257;54.496;18.412;2023-04-24T05:22:04;39.00;;;18.80;;
67372;SDS011;54257;54.496;18.412;2023-04-24T05:24:34;50.20;;;20.30;;
67372;SDS011;54257;54.496;18.412;2023-04-24T05:27:01;37.00;;;20.00;;
67372;SDS011;54257;54.496;18.412;2023-04-24T05:29:29;40.00;;;19.40;;
67372;SDS011;54257;54.496;18.412;2023-04-24T05:31:58;32.20;;;18.30;;
67372;SDS011;54257;54.496;18.412;2023-04-24T05:34:26;30.60;;;16.30;;
67372;SDS011;54257;54.496;18.412;2023-04-24T05:36:53;29.10;;;17.10;;
67372;SDS011;54257;54.496;18.412;2023-04-24T05:39:20;33.60;;;18.70;;
67372;SDS011;54257;54.496;18.412;2023-04-24T05:41:47;30.70;;;17.40;;
67372;SDS011;54257;54.496;18.412;2023-04-24T05:44:17;33.80;;;18.80;;
67372;SDS011;54257;54.496;18.412;2023-04-24T05:46:44;29.40;;;17.00;;
67372;SDS011;54257;54.496;18.412;2023-04-24T05:49:12;31.40;;;18.50;;
67372;SDS011;54257;54.496;18.412;2023-04-24T05:51:39;28.20;;;16.60;;
67372;SDS011;54257;54.496;18.412;2023-04-24T05:54:06;27.10;;;17.30;;
67372;SDS011;54257;54.496;18.412;2023-04-24T05:56:33;26.70;;;16.30;;
67372;SDS011;54257;54.496;18.412;2023-04-24T05:59:00;27.90;;;17.10;;
67372;SDS011;54257;54.496;18.412;2023-04-24T06:01:27;31.60;;;18.70;;
67372;SDS011;54257;54.496;18.412;2023-04-24T06:03:55;28.10;;;16.90;;
67372;SDS011;54257;54.496;18.412;2023-04-24T06:06:23;25.40;;;15.80;;
67372;SDS011;54257;54.496;18.412;2023-04-24T06:08:51;27.20;;;17.10;;
67372;SDS011;54257;54.496;18.412;2023-04-24T06:11:18;24.40;;;15.70;;
67372;SDS011;54257;54.496;18.412;2023-04-24T06:13:45;24.20;;;15.90;;
67372;SDS011;54257;54.496;18.412;2023-04-24T06:16:12;19.90;;;13.50;;
67372;SDS011;54257;54.496;18.412;2023-04-24T06:18:40;17.80;;;13.10;;
67372;SDS011;54257;54.496;18.412;2023-04-24T06:21:07;19.50;;;14.50;;
67372;SDS011;54257;54.496;18.412;2023-04-24T06:23:34;19.90;;;13.40;;
67372;SDS011;54257;54.496;18.412;2023-04-24T06:26:01;19.70;;;13.70;;
67372;SDS011;54257;54.496;18.412;2023-04-24T06:28:29;21.40;;;15.30;;
67372;SDS011;54257;54.496;18.412;2023-04-24T06:30:56;23.20;;;15.20;;
67372;SDS011;54257;54.496;18.412;2023-04-24T06:33:23;20.40;;;14.50;;
67372;SDS011;54257;54.496;18.412;2023-04-24T06:35:50;22.10;;;15.80;;
67372;SDS011;54257;54.496;18.412;2023-04-24T06:38:17;22.20;;;15.30;;
67372;SDS011;54257;54.496;18.412;2023-04-24T06:40:44;23.70;;;15.50;;
67372;SDS011;54257;54.496;18.412;2023-04-24T06:43:11;20.60;;;15.00;;
67372;SDS011;54257;54.496;18.412;2023-04-24T06:45:39;20.00;;;13.30;;
67372;SDS011;54257;54.496;18.412;2023-04-24T06:48:06;17.20;;;12.20;;
67372;SDS011;54257;54.496;18.412;2023-04-24T06:50:34;17.40;;;13.00;;
67372;SDS011;54257;54.496;18.412;2023-04-24T06:53:02;15.40;;;11.60;;
67372;SDS011;54257;54.496;18.412;2023-04-24T06:55:29;17.60;;;12.20;;
67372;SDS011;54257;54.496;18.412;2023-04-24T06:57:56;17.00;;;12.10;;
67372;SDS011;54257;54.496;18.412;2023-04-24T07:00:23;13.20;;;10.70;;
67372;SDS011;54257;54.496;18.412;2023-04-24T07:02:50;14.40;;;10.80;;
67372;SDS011;54257;54.496;18.412;2023-04-24T07:05:17;15.50;;;11.50;;
67372;SDS011;54257;54.496;18.412;2023-04-24T07:07:49;14.80;;;10.60;;
67372;SDS011;54257;54.496;18.412;2023-04-24T07:10:17;16.30;;;10.90;;
67372;SDS011;54257;54.496;18.412;2023-04-24T07:12:45;15.30;;;10.20;;
67372;SDS011;54257;54.496;18.412;2023-04-24T07:15:13;16.00;;;11.10;;
67372;SDS011;54257;54.496;18.412;2023-04-24T07:17:40;13.40;;;9.10;;
67372;SDS011;54257;54.496;18.412;2023-04-24T07:20:10;10.20;;;8.60;;
67372;SDS011;54257;54.496;18.412;2023-04-24T07:22:38;23.50;;;8.80;;
67372;SDS011;54257;54.496;18.412;2023-04-24T07:25:07;12.10;;;8.50;;
67372;SDS011;54257;54.496;18.412;2023-04-24T07:27:35;9.30;;;7.50;;
67372;SDS011;54257;54.496;18.412;2023-04-24T07:30:03;10.30;;;7.00;;
67372;SDS011;54257;54.496;18.412;2023-04-24T07:32:31;10.70;;;7.90;;
67372;SDS011;54257;54.496;18.412;2023-04-24T07:34:58;9.10;;;7.60;;
67372;SDS011;54257;54.496;18.412;2023-04-24T07:37:25;8.90;;;7.10;;
67372;SDS011;54257;54.496;18.412;2023-04-24T07:39:52;8.30;;;6.40;;
67372;SDS011;54257;54.496;18.412;2023-04-24T07:42:21;7.00;;;6.00;;
67372;SDS011;54257;54.496;18.412;2023-04-24T07:44:48;7.30;;;5.90;;
67372;SDS011;54257;54.496;18.412;2023-04-24T07:47:15;6.90;;;6.00;;
67372;SDS011;54257;54.496;18.412;2023-04-24T07:49:42;7.10;;;5.50;;
67372;SDS011;54257;54.496;18.412;2023-04-24T07:52:09;8.20;;;6.60;;
67372;SDS011;54257;54.496;18.412;2023-04-24T07:54:36;7.40;;;5.30;;
67372;SDS011;54257;54.496;18.412;2023-04-24T07:57:04;6.00;;;5.40;;
67372;SDS011;54257;54.496;18.412;2023-04-24T07:59:33;7.10;;;6.00;;
67372;SDS011;54257;54.496;18.412;2023-04-24T08:02:01;6.00;;;5.50;;
67372;SDS011;54257;54.496;18.412;2023-04-24T08:04:28;6.40;;;5.50;;
67372;SDS011;54257;54.496;18.412;2023-04-24T08:06:55;7.00;;;5.80;;
67372;SDS011;54257;54.496;18.412;2023-04-24T08:09:22;7.00;;;6.00;;
67372;SDS011;54257;54.496;18.412;2023-04-24T08:11:49;7.30;;;5.90;;
67372;SDS011;54257;54.496;18.412;2023-04-24T08:14:16;7.60;;;6.20;;
67372;SDS011;54257;54.496;18.412;2023-04-24T08:16:43;6.90;;;5.90;;
67372;SDS011;54257;54.496;18.412;2023-04-24T08:19:10;6.90;;;6.20;;
67372;SDS011;54257;54.496;18.412;2023-04-24T08:21:37;7.40;;;6.20;;
67372;SDS011;54257;54.496;18.412;2023-04-24T08:24:04;8.80;;;7.30;;
67372;SDS011;54257;54.496;18.412;2023-04-24T08:26:34;9.50;;;6.80;;
67372;SDS011;54257;54.496;18.412;2023-04-24T08:29:01;9.80;;;7.00;;
67372;SDS011;54257;54.496;18.412;2023-04-24T08:31:29;7.50;;;6.10;;
67372;SDS011;54257;54.496;18.412;2023-04-24T08:33:56;8.30;;;6.80;;
67372;SDS011;54257;54.496;18.412;2023-04-24T08:36:23;9.00;;;6.70;;
67372;SDS011;54257;54.496;18.412;2023-04-24T08:38:50;9.00;;;7.80;;
67372;SDS011;54257;54.496;18.412;2023-04-24T08:41:18;10.80;;;8.30;;
67372;SDS011;54257;54.496;18.412;2023-04-24T08:43:46;8.30;;;7.40;;
67372;SDS011;54257;54.496;18.412;2023-04-24T08:46:14;10.20;;;8.70;;
67372;SDS011;54257;54.496;18.412;2023-04-24T08:48:42;11.80;;;10.20;;
67372;SDS011;54257;54.496;18.412;2023-04-24T08:51:10;11.40;;;9.90;;
67372;SDS011;54257;54.496;18.412;2023-04-24T08:53:41;13.10;;;10.70;;
67372;SDS011;54257;54.496;18.412;2023-04-24T08:56:08;15.20;;;11.90;;
67372;SDS011;54257;54.496;18.412;2023-04-24T08:58:39;11.70;;;10.40;;
67372;SDS011;54257;54.496;18.412;2023-04-24T09:01:08;12.70;;;10.50;;
67372;SDS011;54257;54.496;18.412;2023-04-24T09:03:36;12.40;;;11.20;;
67372;SDS011;54257;54.496;18.412;2023-04-24T09:06:03;13.00;;;10.50;;
67372;SDS011;54257;54.496;18.412;2023-04-24T09:08:33;14.10;;;11.40;;
67372;SDS011;54257;54.496;18.412;2023-04-24T09:11:00;18.30;;;14.20;;
67372;SDS011;54257;54.496;18.412;2023-04-24T09:13:29;19.30;;;14.40;;
67372;SDS011;54257;54.496;18.412;2023-04-24T09:15:57;21.90;;;17.60;;
67372;SDS011;54257;54.496;18.412;2023-04-24T09:18:26;22.70;;;17.00;;
67372;SDS011;54257;54.496;18.412;2023-04-24T09:21:12;24.10;;;19.10;;
67372;SDS011;54257;54.496;18.412;2023-04-24T09:23:39;21.60;;;16.50;;
67372;SDS011;54257;54.496;18.412;2023-04-24T09:26:14;21.30;;;16.80;;
67372;SDS011;54257;54.496;18.412;2023-04-24T09:28:42;21.80;;;16.70;;
67372;SDS011;54257;54.496;18.412;2023-04-24T09:31:14;20.30;;;16.20;;
67372;SDS011;54257;54.496;18.412;2023-04-24T09:34:04;17.10;;;13.60;;
67372;SDS011;54257;54.496;18.412;2023-04-24T09:36:39;16.50;;;13.00;;
67372;SDS011;54257;54.496;18.412;2023-04-24T09:39:11;16.20;;;11.30;;
67372;SDS011;54257;54.496;18.412;2023-04-24T09:41:52;13.70;;;10.50;;
67372;SDS011;54257;54.496;18.412;2023-04-24T09:44:22;13.00;;;11.20;;
67372;SDS011;54257;54.496;18.412;2023-04-24T09:46:51;13.00;;;11.00;;
67372;SDS011;54257;54.496;18.412;2023-04-24T09:49:23;12.10;;;9.30;;
67372;SDS011;54257;54.496;18.412;2023-04-24T09:51:51;12.30;;;9.20;;
67372;SDS011;54257;54.496;18.412;2023-04-24T09:54:20;11.70;;;9.90;;
67372;SDS011;54257;54.496;18.412;2023-04-24T09:56:49;11.20;;;9.90;;
67372;SDS011;54257;54.496;18.412;2023-04-24T09:59:18;11.80;;;10.40;;
67372;SDS011;54257;54.496;18.412;2023-04-24T10:01:46;12.50;;;10.80;;
67372;SDS011;54257;54.496;18.412;2023-04-24T10:04:19;15.10;;;11.20;;
67372;SDS011;54257;54.496;18.412;2023-04-24T10:06:51;12.90;;;10.80;;
67372;SDS011;54257;54.496;18.412;2023-04-24T10:09:21;13.40;;;11.00;;
67372;SDS011;54257;54.496;18.412;2023-04-24T10:11:50;15.10;;;10.70;;
67372;SDS011;54257;54.496;18.412;2023-04-24T10:14:21;13.30;;;11.90;;
67372;SDS011;54257;54.496;18.412;2023-04-24T10:16:51;13.50;;;11.70;;
67372;SDS011;54257;54.496;18.412;2023-04-24T10:19:20;12.70;;;11.30;;
67372;SDS011;54257;54.496;18.412;2023-04-24T10:21:49;14.00;;;10.30;;
67372;SDS011;54257;54.496;18.412;2023-04-24T10:24:17;12.60;;;11.30;;
67372;SDS011;54257;54.496;18.412;2023-04-24T10:26:47;14.10;;;12.10;;
67372;SDS011;54257;54.496;18.412;2023-04-24T10:29:16;16.10;;;13.30;;
67372;SDS011;54257;54.496;18.412;2023-04-24T10:31:44;14.00;;;12.00;;
67372;SDS011;54257;54.496;18.412;2023-04-24T10:34:15;13.00;;;11.70;;
67372;SDS011;54257;54.496;18.412;2023-04-24T10:36:53;14.00;;;12.50;;
67372;SDS011;54257;54.496;18.412;2023-04-24T10:39:22;14.30;;;12.50;;
67372;SDS011;54257;54.496;18.412;2023-04-24T10:41:50;15.90;;;13.20;;
67372;SDS011;54257;54.496;18.412;2023-04-24T10:44:17;12.80;;;11.30;;
67372;SDS011;54257;54.496;18.412;2023-04-24T10:46:46;13.70;;;12.30;;
67372;SDS011;54257;54.496;18.412;2023-04-24T10:49:27;13.00;;;11.70;;
67372;SDS011;54257;54.496;18.412;2023-04-24T10:52:00;13.20;;;11.90;;
67372;SDS011;54257;54.496;18.412;2023-04-24T11:00:09;12.80;;;11.50;;
67372;SDS011;54257;54.496;18.412;2023-04-24T11:02:39;13.20;;;11.80;;
67372;SDS011;54257;54.496;18.412;2023-04-24T11:05:15;12.00;;;10.30;;
67372;SDS011;54257;54.496;18.412;2023-04-24T11:10:57;14.10;;;12.70;;
67372;SDS011;54257;54.496;18.412;2023-04-24T11:13:26;13.60;;;12.00;;
67372;SDS011;54257;54.496;18.412;2023-04-24T11:16:19;15.70;;;12.90;;
67372;SDS011;54257;54.496;18.412;2023-04-24T11:18:59;15.60;;;13.20;;
67372;SDS011;54257;54.496;18.412;2023-04-24T11:27:14;13.40;;;12.00;;
67372;SDS011;54257;54.496;18.412;2023-04-24T11:32:35;15.90;;;12.20;;
67372;SDS011;54257;54.496;18.412;2023-04-24T11:35:08;15.30;;;13.10;;
67372;SDS011;54257;54.496;18.412;2023-04-24T11:37:42;14.40;;;12.90;;
67372;SDS011;54257;54.496;18.412;2023-04-24T11:40:13;15.80;;;12.70;;
67372;SDS011;54257;54.496;18.412;2023-04-24T11:42:46;12.50;;;11.20;;
67372;SDS011;54257;54.496;18.412;2023-04-24T11:45:15;12.90;;;11.50;;
67372;SDS011;54257;54.496;18.412;2023-04-24T11:47:43;14.10;;;10.80;;
67372;SDS011;54257;54.496;18.412;2023-04-24T11:50:13;12.40;;;11.10;;
67372;SDS011;54257;54.496;18.412;2023-04-24T11:52:45;12.60;;;10.50;;
67372;SDS011;54257;54.496;18.412;2023-04-24T11:57:47;12.40;;;11.10;;
67372;SDS011;54257;54.496;18.412;2023-04-24T12:00:16;12.60;;;11.40;;
67372;SDS011;54257;54.496;18.412;2023-04-24T12:02:48;18.00;;;12.70;;
67372;SDS011;54257;54.496;18.412;2023-04-24T12:05:20;11.80;;;10.60;;
67372;SDS011;54257;54.496;18.412;2023-04-24T12:07:53;11.90;;;10.00;;
67372;SDS011;54257;54.496;18.412;2023-04-24T12:10:24;11.70;;;10.60;;
67372;SDS011;54257;54.496;18.412;2023-04-24T12:12:54;11.30;;;10.10;;
67372;SDS011;54257;54.496;18.412;2023-04-24T12:15:23;13.00;;;10.20;;
67372;SDS011;54257;54.496;18.412;2023-04-24T12:17:51;11.80;;;9.30;;
67372;SDS011;54257;54.496;18.412;2023-04-24T12:20:24;10.90;;;9.70;;
67372;SDS011;54257;54.496;18.412;2023-04-24T12:22:54;14.10;;;9.60;;
67372;SDS011;54257;54.496;18.412;2023-04-24T12:25:24;10.00;;;8.60;;
67372;SDS011;54257;54.496;18.412;2023-04-24T12:27:53;10.40;;;8.70;;
67372;SDS011;54257;54.496;18.412;2023-04-24T12:30:25;7.70;;;6.90;;
67372;SDS011;54257;54.496;18.412;2023-04-24T12:32:56;10.50;;;6.80;;
67372;SDS011;54257;54.496;18.412;2023-04-24T12:35:25;7.40;;;6.10;;
67372;SDS011;54257;54.496;18.412;2023-04-24T12:37:54;6.90;;;5.60;;
67372;SDS011;54257;54.496;18.412;2023-04-24T12:40:22;8.10;;;5.70;;
67372;SDS011;54257;54.496;18.412;2023-04-24T12:42:53;5.60;;;5.10;;
67372;SDS011;54257;54.496;18.412;2023-04-24T12:45:20;6.30;;;5.40;;
67372;SDS011;54257;54.496;18.412;2023-04-24T12:47:50;7.10;;;4.90;;
67372;SDS011;54257;54.496;18.412;2023-04-24T12:50:17;5.40;;;4.90;;
67372;SDS011;54257;54.496;18.412;2023-04-24T12:52:45;5.30;;;4.70;;
67372;SDS011;54257;54.496;18.412;2023-04-24T12:55:14;8.10;;;5.40;;
67372;SDS011;54257;54.496;18.412;2023-04-24T12:57:41;5.40;;;4.80;;
67372;SDS011;54257;54.496;18.412;2023-04-24T13:00:08;8.60;;;5.60;;
67372;SDS011;54257;54.496;18.412;2023-04-24T13:02:36;5.90;;;4.70;;
67372;SDS011;54257;54.496;18.412;2023-04-24T13:05:03;5.60;;;4.60;;
67372;SDS011;54257;54.496;18.412;2023-04-24T13:07:32;8.20;;;5.20;;
67372;SDS011;54257;54.496;18.412;2023-04-24T13:10:00;7.40;;;4.20;;
67372;SDS011;54257;54.496;18.412;2023-04-24T13:12:27;5.30;;;3.80;;
67372;SDS011;54257;54.496;18.412;2023-04-24T13:14:54;8.20;;;4.20;;
67372;SDS011;54257;54.496;18.412;2023-04-24T13:17:22;5.60;;;4.20;;
67372;SDS011;54257;54.496;18.412;2023-04-24T13:19:53;24.30;;;4.90;;
67372;SDS011;54257;54.496;18.412;2023-04-24T13:22:21;9.30;;;4.00;;
67372;SDS011;54257;54.496;18.412;2023-04-24T13:24:48;9.40;;;4.00;;
67372;SDS011;54257;54.496;18.412;2023-04-24T13:27:16;7.40;;;4.10;;
67372;SDS011;54257;54.496;18.412;2023-04-24T13:29:44;5.90;;;4.00;;
67372;SDS011;54257;54.496;18.412;2023-04-24T13:32:11;5.00;;;3.90;;
67372;SDS011;54257;54.496;18.412;2023-04-24T13:34:38;5.00;;;4.40;;
67372;SDS011;54257;54.496;18.412;2023-04-24T13:37:05;6.70;;;4.10;;
67372;SDS011;54257;54.496;18.412;2023-04-24T13:39:34;5.10;;;4.10;;
67372;SDS011;54257;54.496;18.412;2023-04-24T13:42:02;6.60;;;4.30;;
67372;SDS011;54257;54.496;18.412;2023-04-24T13:44:30;5.10;;;4.10;;
67372;SDS011;54257;54.496;18.412;2023-04-24T13:46:57;5.20;;;4.10;;
67372;SDS011;54257;54.496;18.412;2023-04-24T13:49:25;6.10;;;3.80;;
67372;SDS011;54257;54.496;18.412;2023-04-24T13:51:54;4.10;;;3.70;;
67372;SDS011;54257;54.496;18.412;2023-04-24T13:54:22;5.80;;;4.10;;
67372;SDS011;54257;54.496;18.412;2023-04-24T13:56:52;4.60;;;3.60;;
67372;SDS011;54257;54.496;18.412;2023-04-24T13:59:20;5.10;;;4.00;;
67372;SDS011;54257;54.496;18.412;2023-04-24T14:01:49;14.80;;;4.60;;
67372;SDS011;54257;54.496;18.412;2023-04-24T14:04:17;4.80;;;4.20;;
67372;SDS011;54257;54.496;18.412;2023-04-24T14:06:43;4.90;;;4.30;;
67372;SDS011;54257;54.496;18.412;2023-04-24T14:09:11;4.30;;;3.90;;
67372;SDS011;54257;54.496;18.412;2023-04-24T14:11:39;4.40;;;4.00;;
67372;SDS011;54257;54.496;18.412;2023-04-24T14:14:07;5.70;;;4.10;;
67372;SDS011;54257;54.496;18.412;2023-04-24T14:16:34;7.80;;;3.80;;
67372;SDS011;54257;54.496;18.412;2023-04-24T14:19:01;5.40;;;4.90;;
67372;SDS011;54257;54.496;18.412;2023-04-24T14:21:29;6.10;;;4.10;;
67372;SDS011;54257;54.496;18.412;2023-04-24T14:23:57;6.80;;;3.80;;
67372;SDS011;54257;54.496;18.412;2023-04-24T14:26:24;4.90;;;3.20;;
67372;SDS011;54257;54.496;18.412;2023-04-24T14:28:51;5.60;;;4.10;;
67372;SDS011;54257;54.496;18.412;2023-04-24T14:31:19;5.00;;;3.90;;
67372;SDS011;54257;54.496;18.412;2023-04-24T14:33:47;5.10;;;4.60;;
67372;SDS011;54257;54.496;18.412;2023-04-24T14:36:15;5.60;;;4.70;;
67372;SDS011;54257;54.496;18.412;2023-04-24T14:38:41;5.70;;;4.70;;
67372;SDS011;54257;54.496;18.412;2023-04-24T14:41:08;5.30;;;3.90;;
67372;SDS011;54257;54.496;18.412;2023-04-24T14:43:36;9.20;;;4.50;;